Amalia, NM (87512)

6:23 PM MDT on September 22, 2014 (GMT -0600)
RAWS WILD RIVERS NM US | Change Station
CLOSE
Current Station
Personal Weather Station
Location: Questa, NM
Elevation: 7529 ft
Nearby Weather Stations

Elev 7529 ft 36.69 °N, 105.67 °W | Updated 34 minutes ago

Partly Cloudy
Partly Cloudy
61 °F
Feels Like 61 °F
N
4
Wind Variable Wind from SSE
Gusts 8.0 mph

Today
High -- | Low -- °F
--% Chance of Precip.
Yesterday
High -- | Low -- °F
Precip. -- in
6:50 AM 6:59 PM
Waning Crescent, 1% visible
Pressure 30.31 in
Visibility 10.0 miles
Clouds Clear
Dew Point 56 °F
Humidity 83%
Rainfall 0.13 in
Snow Depth 0 in , 3 in , 0 in
UV 0 out of 12
Pollen 5.40 out of 12
Air Quality Not available.
Flu Activity Not available.
METAR KSKX 230015Z AUTO 16006KT 10SM CLR 18/12 A3031 RMK AO1

More Conditions Fewer Conditions

Pressure 30.31 in
Visibility 10.0 miles
Clouds Clear
Dew Point 56 °F
Humidity 83%
Rainfall 0.13 in
Snow Depth 0 in , 3 in , 0 in
UV 0 out of 12
Pollen 5.40 out of 12
Air Quality Not available.
Flu Activity Not available.
METAR KSKX 230015Z AUTO 16006KT 10SM CLR 18/12 A3031 RMK AO1

More Conditions Fewer Conditions

Nowcast | as of 5:17 PM MDT on September 22, 2014

Scattered showers and thunderstorms over north central and northeast New Mexico will peak in coverage through 700 PM. The strongest storms capable of brief heavy rain...hail up to dime size and wind gusts to 50 mph will pass near Penasco...Chacon...just east of Raton...and 10 to 20 miles north of Cimarron. Rainfall rates will average between one half and one inch in an hours time with these stronger storms. In addition...hail up to penny size and wind gusts to 50 mph may accompany the stronger storms.

×

10-Day Weather Forecast

Almanac

Astronomy

Sep. 22, 2014 Rise Set
Actual Time 6:50 AM MDT 6:59 PM MDT
Civil Twilight 6:24 AM MDT 7:24 PM MDT
Nautical Twilight 5:54 AM MDT 7:55 PM MDT
Astronomical Twilight 5:23 AM MDT 8:25 PM MDT
Moon 5:22 AM MDT (9/22) 6:07 PM MDT (9/22)
Length of Visible Light 13h 00m
Length of Day
12h 08m
Tomorrow will be 2m 19s shorter.
Waning Crescent, 1% of the Moon is Illuminated
Today
Waning Crescent
Sep 24
New
Oct 1
First Quarter
Oct 8
Full
Oct 15
Last Quarter

Today's Extremes

State Highs State Lows

Community

WunderPhotos

Upload Photos

1,755,574 photos uploaded!

Nearby

Snow Depth

Station Depth Elevation
McKnight Cabin 0 in 9240 ft
Wesner Springs 3 in 11120 ft
Tolby 0 in 10180 ft
Silver Creek Divide 1 in 9000 ft
Quemazon 1 in 9500 ft

Earthquake Activity

City Distance Mag. Time & Date
No recent earthquake activity has been reported nearby.
Minimum magnitude displayed is 2.5.

Coastal Water Temperatures

Place Temperature
No Stations Reporting

Nearby Weather Stations